sensor_id;sensor_type;location;lat;lon;timestamp;pressure;altitude;pressure_sealevel;temperature;humidity
55010;BME280;40903;51.638;7.528;2023-03-29T00:02:05;101242.41;;;5.56;100.00
55010;BME280;40903;51.638;7.528;2023-03-29T00:04:31;101239.69;;;5.56;100.00
55010;BME280;40903;51.638;7.528;2023-03-29T00:06:57;101231.56;;;5.56;100.00
55010;BME280;40903;51.638;7.528;2023-03-29T00:09:28;101231.56;;;5.56;100.00
55010;BME280;40903;51.638;7.528;2023-03-29T00:11:54;101228.03;;;5.56;100.00
55010;BME280;40903;51.638;7.528;2023-03-29T00:14:19;101227.81;;;5.57;100.00
55010;BME280;40903;51.638;7.528;2023-03-29T00:16:44;101224.53;;;5.55;100.00
55010;BME280;40903;51.638;7.528;2023-03-29T00:19:10;101215.84;;;5.53;100.00
55010;BME280;40903;51.638;7.528;2023-03-29T00:21:36;101212.56;;;5.51;100.00
55010;BME280;40903;51.638;7.528;2023-03-29T00:24:01;101208.22;;;5.50;100.00
55010;BME280;40903;51.638;7.528;2023-03-29T00:26:26;101196.81;;;5.48;100.00
55010;BME280;40903;51.638;7.528;2023-03-29T00:28:51;101196.00;;;5.48;100.00
55010;BME280;40903;51.638;7.528;2023-03-29T00:31:17;101192.22;;;5.49;100.00
55010;BME280;40903;51.638;7.528;2023-03-29T00:33:42;101190.38;;;5.49;100.00
55010;BME280;40903;51.638;7.528;2023-03-29T00:36:08;101184.13;;;5.49;100.00
55010;BME280;40903;51.638;7.528;2023-03-29T00:38:34;101189.75;;;5.47;100.00
55010;BME280;40903;51.638;7.528;2023-03-29T00:41:00;101192.22;;;5.49;100.00
55010;BME280;40903;51.638;7.528;2023-03-29T00:43:25;101189.75;;;5.47;100.00
55010;BME280;40903;51.638;7.528;2023-03-29T00:45:51;101185.69;;;5.45;100.00
55010;BME280;40903;51.638;7.528;2023-03-29T00:48:17;101178.63;;;5.44;100.00
55010;BME280;40903;51.638;7.528;2023-03-29T00:50:49;101178.31;;;5.40;100.00
55010;BME280;40903;51.638;7.528;2023-03-29T00:53:20;101175.81;;;5.39;100.00
55010;BME280;40903;51.638;7.528;2023-03-29T00:56:09;101180.94;;;5.35;100.00
55010;BME280;40903;51.638;7.528;2023-03-29T01:01:09;101164.88;;;5.29;100.00
55010;BME280;40903;51.638;7.528;2023-03-29T01:03:39;101156.66;;;5.24;100.00
55010;BME280;40903;51.638;7.528;2023-03-29T01:06:10;101156.34;;;5.20;100.00
55010;BME280;40903;51.638;7.528;2023-03-29T01:08:46;101153.53;;;5.15;100.00
55010;BME280;40903;51.638;7.528;2023-03-29T01:11:19;101159.44;;;5.12;100.00
55010;BME280;40903;51.638;7.528;2023-03-29T01:16:45;101154.50;;;5.09;100.00
55010;BME280;40903;51.638;7.528;2023-03-29T01:19:11;101151.59;;;5.11;100.00
55010;BME280;40903;51.638;7.528;2023-03-29T01:21:45;101149.69;;;5.11;100.00
55010;BME280;40903;51.638;7.528;2023-03-29T01:24:34;101143.22;;;5.12;100.00
55010;BME280;40903;51.638;7.528;2023-03-29T01:27:04;101138.38;;;5.14;100.00
55010;BME280;40903;51.638;7.528;2023-03-29T01:29:37;101133.53;;;5.16;100.00
55010;BME280;40903;51.638;7.528;2023-03-29T01:32:10;101131.41;;;5.18;100.00
55010;BME280;40903;51.638;7.528;2023-03-29T01:34:42;101126.59;;;5.20;100.00
55010;BME280;40903;51.638;7.528;2023-03-29T01:37:23;101115.53;;;5.22;100.00
55010;BME280;40903;51.638;7.528;2023-03-29T01:39:51;101115.03;;;5.25;100.00
55010;BME280;40903;51.638;7.528;2023-03-29T01:44:46;101103.75;;;5.28;100.00
55010;BME280;40903;51.638;7.528;2023-03-29T01:47:17;101098.06;;;5.29;100.00
55010;BME280;40903;51.638;7.528;2023-03-29T01:49:45;101089.97;;;5.29;100.00
55010;BME280;40903;51.638;7.528;2023-03-29T01:52:20;101088.09;;;5.30;100.00
55010;BME280;40903;51.638;7.528;2023-03-29T01:54:50;101092.66;;;5.29;100.00
55010;BME280;40903;51.638;7.528;2023-03-29T01:57:16;101078.34;;;5.29;100.00
55010;BME280;40903;51.638;7.528;2023-03-29T01:59:43;101079.16;;;5.29;100.00
55010;BME280;40903;51.638;7.528;2023-03-29T02:02:11;101077.28;;;5.30;100.00
55010;BME280;40903;51.638;7.528;2023-03-29T02:04:43;101078.09;;;5.30;100.00
55010;BME280;40903;51.638;7.528;2023-03-29T02:07:14;101073.75;;;5.29;100.00
55010;BME280;40903;51.638;7.528;2023-03-29T02:09:40;101070.81;;;5.31;100.00
55010;BME280;40903;51.638;7.528;2023-03-29T02:12:06;101068.34;;;5.29;100.00
55010;BME280;40903;51.638;7.528;2023-03-29T02:14:33;101069.16;;;5.30;100.00
55010;BME280;40903;51.638;7.528;2023-03-29T02:17:18;101068.34;;;5.29;100.00
55010;BME280;40903;51.638;7.528;2023-03-29T02:19:44;101062.13;;;5.29;100.00
55010;BME280;40903;51.638;7.528;2023-03-29T02:22:14;101072.09;;;5.28;100.00
55010;BME280;40903;51.638;7.528;2023-03-29T02:24:42;101061.84;;;5.30;100.00
55010;BME280;40903;51.638;7.528;2023-03-29T02:27:09;101064.56;;;5.30;100.00
55010;BME280;40903;51.638;7.528;2023-03-29T02:29:34;101070.53;;;5.32;100.00
55010;BME280;40903;51.638;7.528;2023-03-29T02:33:02;101067.84;;;5.32;100.00
55010;BME280;40903;51.638;7.528;2023-03-29T02:34:59;101061.34;;;5.33;100.00
55010;BME280;40903;51.638;7.528;2023-03-29T02:37:26;101059.25;;;5.35;100.00
55010;BME280;40903;51.638;7.528;2023-03-29T02:39:54;101057.13;;;5.37;100.00
55010;BME280;40903;51.638;7.528;2023-03-29T02:42:20;101055.22;;;5.38;100.00
55010;BME280;40903;51.638;7.528;2023-03-29T02:44:46;101052.28;;;5.39;100.00
55010;BME280;40903;51.638;7.528;2023-03-29T02:47:14;101046.59;;;5.41;100.00
55010;BME280;40903;51.638;7.528;2023-03-29T02:49:42;101039.09;;;5.43;100.00
55010;BME280;40903;51.638;7.528;2023-03-29T02:52:09;101031.22;;;5.41;100.00
55010;BME280;40903;51.638;7.528;2023-03-29T02:54:36;101029.63;;;5.45;100.00
55010;BME280;40903;51.638;7.528;2023-03-29T02:57:06;101028.00;;;5.44;100.00
55010;BME280;40903;51.638;7.528;2023-03-29T02:59:32;101029.63;;;5.45;100.00
55010;BME280;40903;51.638;7.528;2023-03-29T03:01:58;101027.50;;;5.47;100.00
55010;BME280;40903;51.638;7.528;2023-03-29T03:04:24;101024.31;;;5.50;100.00
55010;BME280;40903;51.638;7.528;2023-03-29T03:06:53;101024.63;;;5.54;100.00
55010;BME280;40903;51.638;7.528;2023-03-29T03:09:18;101028.72;;;5.56;100.00
55010;BME280;40903;51.638;7.528;2023-03-29T03:11:43;101022.25;;;5.57;100.00
55010;BME280;40903;51.638;7.528;2023-03-29T03:14:09;101016.31;;;5.60;100.00
55010;BME280;40903;51.638;7.528;2023-03-29T03:16:34;101016.88;;;5.62;100.00
55010;BME280;40903;51.638;7.528;2023-03-29T03:19:01;101016.66;;;5.64;100.00
55010;BME280;40903;51.638;7.528;2023-03-29T03:21:26;101011.56;;;5.67;100.00
55010;BME280;40903;51.638;7.528;2023-03-29T03:23:54;101009.66;;;5.68;100.00
55010;BME280;40903;51.638;7.528;2023-03-29T03:26:20;101004.34;;;5.72;100.00
55010;BME280;40903;51.638;7.528;2023-03-29T03:28:45;101007.34;;;5.76;100.00
55010;BME280;40903;51.638;7.528;2023-03-29T03:31:11;101009.63;;;5.84;100.00
55010;BME280;40903;51.638;7.528;2023-03-29T03:33:38;101011.84;;;5.87;100.00
55010;BME280;40903;51.638;7.528;2023-03-29T03:36:03;101008.06;;;5.88;100.00
55010;BME280;40903;51.638;7.528;2023-03-29T03:38:30;101013.78;;;5.91;100.00
55010;BME280;40903;51.638;7.528;2023-03-29T03:40:56;101011.09;;;5.91;100.00
55010;BME280;40903;51.638;7.528;2023-03-29T03:43:22;101010.81;;;5.93;100.00
55010;BME280;40903;51.638;7.528;2023-03-29T03:45:47;101014.34;;;5.93;100.00
55010;BME280;40903;51.638;7.528;2023-03-29T03:48:12;101015.75;;;5.96;100.00
55010;BME280;40903;51.638;7.528;2023-03-29T03:50:38;101005.47;;;5.98;100.00
55010;BME280;40903;51.638;7.528;2023-03-29T03:53:04;101004.97;;;6.01;100.00
55010;BME280;40903;51.638;7.528;2023-03-29T03:55:29;101005.53;;;6.03;100.00
55010;BME280;40903;51.638;7.528;2023-03-29T03:57:56;101008.28;;;6.08;100.00
55010;BME280;40903;51.638;7.528;2023-03-29T04:00:21;101004.31;;;6.15;100.00
55010;BME280;40903;51.638;7.528;2023-03-29T04:02:47;101002.19;;;6.17;100.00
55010;BME280;40903;51.638;7.528;2023-03-29T04:05:13;100998.91;;;6.15;100.00
55010;BME280;40903;51.638;7.528;2023-03-29T04:07:38;101003.31;;;6.21;100.00
55010;BME280;40903;51.638;7.528;2023-03-29T04:10:05;100995.22;;;6.26;100.00
55010;BME280;40903;51.638;7.528;2023-03-29T04:12:32;101001.63;;;6.42;99.04
55010;BME280;40903;51.638;7.528;2023-03-29T04:14:58;101006.28;;;6.46;98.07
55010;BME280;40903;51.638;7.528;2023-03-29T04:17:23;101003.34;;;6.53;97.15
55010;BME280;40903;51.638;7.528;2023-03-29T04:19:48;100997.72;;;6.59;96.78
55010;BME280;40903;51.638;7.528;2023-03-29T04:22:14;101000.16;;;6.56;96.62
55010;BME280;40903;51.638;7.528;2023-03-29T04:24:39;100998.56;;;6.65;96.19
55010;BME280;40903;51.638;7.528;2023-03-29T04:27:05;101005.63;;;6.66;96.14
55010;BME280;40903;51.638;7.528;2023-03-29T04:29:30;101000.75;;;6.63;96.38
55010;BME280;40903;51.638;7.528;2023-03-29T04:31:55;101003.72;;;6.61;97.46
55010;BME280;40903;51.638;7.528;2023-03-29T04:34:21;100993.16;;;6.65;96.89
55010;BME280;40903;51.638;7.528;2023-03-29T04:36:46;100992.59;;;6.63;97.72
55010;BME280;40903;51.638;7.528;2023-03-29T04:39:14;100991.00;;;6.67;97.03
55010;BME280;40903;51.638;7.528;2023-03-29T04:41:39;100993.72;;;6.67;97.67
55010;BME280;40903;51.638;7.528;2023-03-29T04:44:05;100986.72;;;6.71;98.28
55010;BME280;40903;51.638;7.528;2023-03-29T04:46:30;100994.03;;;6.70;98.67
55010;BME280;40903;51.638;7.528;2023-03-29T04:48:56;100988.38;;;6.72;99.68
55010;BME280;40903;51.638;7.528;2023-03-29T04:51:21;100991.88;;;6.72;99.75
55010;BME280;40903;51.638;7.528;2023-03-29T04:53:48;100988.88;;;6.69;100.00
55010;BME280;40903;51.638;7.528;2023-03-29T04:56:14;100989.00;;;6.84;100.00
55010;BME280;40903;51.638;7.528;2023-03-29T04:58:40;100987.59;;;6.76;100.00
55010;BME280;40903;51.638;7.528;2023-03-29T05:01:06;100971.56;;;6.70;100.00
55010;BME280;40903;51.638;7.528;2023-03-29T05:03:31;100978.84;;;6.69;100.00
55010;BME280;40903;51.638;7.528;2023-03-29T05:06:06;100978.59;;;6.71;100.00
55010;BME280;40903;51.638;7.528;2023-03-29T05:08:33;100979.47;;;6.76;100.00
55010;BME280;40903;51.638;7.528;2023-03-29T05:10:59;100971.59;;;6.75;100.00
55010;BME280;40903;51.638;7.528;2023-03-29T05:13:24;100974.03;;;6.76;100.00
55010;BME280;40903;51.638;7.528;2023-03-29T05:15:49;100972.97;;;6.77;100.00
55010;BME280;40903;51.638;7.528;2023-03-29T05:18:15;100981.69;;;6.84;100.00
55010;BME280;40903;51.638;7.528;2023-03-29T05:20:41;100977.09;;;6.85;100.00
55010;BME280;40903;51.638;7.528;2023-03-29T05:23:06;100979.22;;;6.83;100.00
55010;BME280;40903;51.638;7.528;2023-03-29T05:25:31;100980.28;;;6.82;100.00
55010;BME280;40903;51.638;7.528;2023-03-29T05:27:57;100966.19;;;6.80;100.00
55010;BME280;40903;51.638;7.528;2023-03-29T05:30:23;100964.00;;;6.77;100.00
55010;BME280;40903;51.638;7.528;2023-03-29T05:32:48;100972.78;;;6.89;100.00
55010;BME280;40903;51.638;7.528;2023-03-29T05:35:13;100969.22;;;6.88;100.00
55010;BME280;40903;51.638;7.528;2023-03-29T05:37:39;100967.66;;;6.92;100.00
55010;BME280;40903;51.638;7.528;2023-03-29T05:40:04;100971.16;;;6.93;100.00
55010;BME280;40903;51.638;7.528;2023-03-29T05:42:32;100985.25;;;6.90;100.00
55010;BME280;40903;51.638;7.528;2023-03-29T05:44:57;100985.81;;;6.92;100.00
55010;BME280;40903;51.638;7.528;2023-03-29T05:47:22;100979.28;;;6.88;100.00
55010;BME280;40903;51.638;7.528;2023-03-29T05:49:47;100985.56;;;6.93;100.00
55010;BME280;40903;51.638;7.528;2023-03-29T05:52:13;100972.28;;;6.97;100.00
55010;BME280;40903;51.638;7.528;2023-03-29T05:54:38;100974.44;;;6.95;100.00
55010;BME280;40903;51.638;7.528;2023-03-29T05:57:04;100972.03;;;6.98;100.00
55010;BME280;40903;51.638;7.528;2023-03-29T05:59:29;100975.03;;;7.02;100.00
55010;BME280;40903;51.638;7.528;2023-03-29T06:01:56;100977.78;;;7.07;100.00
55010;BME280;40903;51.638;7.528;2023-03-29T06:04:21;100984.06;;;7.12;100.00
55010;BME280;40903;51.638;7.528;2023-03-29T06:06:47;100984.09;;;7.17;100.00
55010;BME280;40903;51.638;7.528;2023-03-29T06:09:12;100977.56;;;7.18;100.00
55010;BME280;40903;51.638;7.528;2023-03-29T06:11:38;100975.47;;;7.25;100.00
55010;BME280;40903;51.638;7.528;2023-03-29T06:14:03;100974.38;;;7.26;100.00
55010;BME280;40903;51.638;7.528;2023-03-29T06:16:28;100971.66;;;7.21;100.00
55010;BME280;40903;51.638;7.528;2023-03-29T06:18:54;100964.56;;;7.20;100.00
55010;BME280;40903;51.638;7.528;2023-03-29T06:21:19;100973.22;;;7.17;100.00
55010;BME280;40903;51.638;7.528;2023-03-29T06:23:44;100973.84;;;7.24;100.00
55010;BME280;40903;51.638;7.528;2023-03-29T06:26:10;100972.75;;;7.25;100.00
55010;BME280;40903;51.638;7.528;2023-03-29T06:28:36;100965.47;;;7.31;100.00
55010;BME280;40903;51.638;7.528;2023-03-29T06:31:02;100955.97;;;7.33;100.00
55010;BME280;40903;51.638;7.528;2023-03-29T06:33:28;100963.31;;;7.33;100.00
55010;BME280;40903;51.638;7.528;2023-03-29T06:35:54;100955.19;;;7.38;100.00
55010;BME280;40903;51.638;7.528;2023-03-29T06:38:19;100957.91;;;7.43;100.00
55010;BME280;40903;51.638;7.528;2023-03-29T06:40:45;100953.09;;;7.50;100.00
55010;BME280;40903;51.638;7.528;2023-03-29T06:43:11;100947.94;;;7.53;100.00
55010;BME280;40903;51.638;7.528;2023-03-29T06:45:37;100954.50;;;7.62;100.00
55010;BME280;40903;51.638;7.528;2023-03-29T06:48:03;100961.84;;;7.67;100.00
55010;BME280;40903;51.638;7.528;2023-03-29T06:50:28;100953.16;;;7.69;100.00
55010;BME280;40903;51.638;7.528;2023-03-29T06:52:54;100955.91;;;7.74;100.00
55010;BME280;40903;51.638;7.528;2023-03-29T06:55:21;100951.03;;;7.76;100.00
55010;BME280;40903;51.638;7.528;2023-03-29T06:57:47;100958.69;;;7.89;100.00
55010;BME280;40903;51.638;7.528;2023-03-29T07:00:14;100957.84;;;7.94;100.00
55010;BME280;40903;51.638;7.528;2023-03-29T07:02:52;100950.00;;;8.02;100.00
55010;BME280;40903;51.638;7.528;2023-03-29T07:05:18;100960.31;;;8.00;100.00
55010;BME280;40903;51.638;7.528;2023-03-29T07:07:44;100955.19;;;8.09;100.00
55010;BME280;40903;51.638;7.528;2023-03-29T07:10:22;100954.94;;;8.15;100.00
55010;BME280;40903;51.638;7.528;2023-03-29T07:12:48;100963.94;;;8.26;100.00
55010;BME280;40903;51.638;7.528;2023-03-29T07:15:13;100962.06;;;8.36;100.00
55010;BME280;40903;51.638;7.528;2023-03-29T07:17:39;100972.69;;;8.43;100.00
55010;BME280;40903;51.638;7.528;2023-03-29T07:20:04;100969.13;;;8.47;100.00
55010;BME280;40903;51.638;7.528;2023-03-29T07:22:37;100965.34;;;8.53;100.00
55010;BME280;40903;51.638;7.528;2023-03-29T07:25:03;100959.91;;;8.53;100.00
55010;BME280;40903;51.638;7.528;2023-03-29T07:27:28;100965.88;;;8.60;100.00
55010;BME280;40903;51.638;7.528;2023-03-29T07:29:53;100961.56;;;8.69;100.00
55010;BME280;40903;51.638;7.528;2023-03-29T07:32:21;100964.81;;;8.76;100.00
55010;BME280;40903;51.638;7.528;2023-03-29T07:34:46;100967.00;;;8.79;100.00
55010;BME280;40903;51.638;7.528;2023-03-29T07:37:12;100969.44;;;8.91;100.00
55010;BME280;40903;51.638;7.528;2023-03-29T07:39:37;100968.06;;;9.03;100.00
55010;BME280;40903;51.638;7.528;2023-03-29T07:42:03;100973.75;;;9.12;100.00
55010;BME280;40903;51.638;7.528;2023-03-29T07:44:28;100972.69;;;9.18;98.74
55010;BME280;40903;51.638;7.528;2023-03-29T07:46:53;100969.94;;;9.23;97.15
55010;BME280;40903;51.638;7.528;2023-03-29T07:49:18;100975.13;;;9.24;97.46
55010;BME280;40903;51.638;7.528;2023-03-29T07:51:44;100978.34;;;9.31;95.84
55010;BME280;40903;51.638;7.528;2023-03-29T07:54:09;100979.16;;;9.37;95.86
55010;BME280;40903;51.638;7.528;2023-03-29T07:56:34;100978.06;;;9.38;93.31
55010;BME280;40903;51.638;7.528;2023-03-29T07:59:00;100975.38;;;9.33;94.85
55010;BME280;40903;51.638;7.528;2023-03-29T08:01:28;100979.97;;;9.37;94.92
55010;BME280;40903;51.638;7.528;2023-03-29T08:03:53;100987.31;;;9.37;94.68
55010;BME280;40903;51.638;7.528;2023-03-29T08:06:19;100981.03;;;9.46;93.17
55010;BME280;40903;51.638;7.528;2023-03-29T08:08:44;100987.00;;;9.48;92.56
55010;BME280;40903;51.638;7.528;2023-03-29T08:11:09;100983.75;;;9.46;92.94
55010;BME280;40903;51.638;7.528;2023-03-29T08:13:34;100978.03;;;9.48;92.76
55010;BME280;40903;51.638;7.528;2023-03-29T08:15:59;100980.47;;;9.54;90.76
55010;BME280;40903;51.638;7.528;2023-03-29T08:18:25;100980.19;;;9.56;91.31
55010;BME280;40903;51.638;7.528;2023-03-29T08:20:50;100966.53;;;9.61;90.51
55010;BME280;40903;51.638;7.528;2023-03-29T08:23:16;100962.47;;;9.63;90.51
55010;BME280;40903;51.638;7.528;2023-03-29T08:25:41;100970.06;;;9.66;89.56
55010;BME280;40903;51.638;7.528;2023-03-29T08:28:06;100963.81;;;9.66;91.29
55010;BME280;40903;51.638;7.528;2023-03-29T08:30:32;100961.38;;;9.69;89.08
55010;BME280;40903;51.638;7.528;2023-03-29T08:32:57;100962.69;;;9.76;88.68
55010;BME280;40903;51.638;7.528;2023-03-29T08:35:23;100958.31;;;9.80;87.54
55010;BME280;40903;51.638;7.528;2023-03-29T08:37:49;100963.72;;;9.85;88.00
55010;BME280;40903;51.638;7.528;2023-03-29T08:40:16;100965.91;;;9.88;87.95
55010;BME280;40903;51.638;7.528;2023-03-29T08:50:44;100964.66;;;10.19;86.59
55010;BME280;40903;51.638;7.528;2023-03-29T08:53:34;100964.34;;;10.26;87.11
55010;BME280;40903;51.638;7.528;2023-03-29T08:55:57;100951.72;;;10.40;86.40
55010;BME280;40903;51.638;7.528;2023-03-29T08:58:25;100953.03;;;10.52;85.40
55010;BME280;40903;51.638;7.528;2023-03-29T09:00:53;100957.59;;;10.62;82.96
55010;BME280;40903;51.638;7.528;2023-03-29T09:05:58;100958.69;;;10.61;84.61
55010;BME280;40903;51.638;7.528;2023-03-29T09:08:26;100958.63;;;10.66;85.51
55010;BME280;40903;51.638;7.528;2023-03-29T09:15:51;100969.38;;;10.86;84.07
55010;BME280;40903;51.638;7.528;2023-03-29T09:18:42;100961.69;;;10.93;83.30
55010;BME280;40903;51.638;7.528;2023-03-29T09:26:39;100962.66;;;11.07;81.60
55010;BME280;40903;51.638;7.528;2023-03-29T09:31:49;100959.91;;;11.07;82.49
55010;BME280;40903;51.638;7.528;2023-03-29T09:34:32;100966.75;;;11.04;83.27
55010;BME280;40903;51.638;7.528;2023-03-29T09:39:26;100969.56;;;10.94;85.50
55010;BME280;40903;51.638;7.528;2023-03-29T09:44:18;100989.09;;;10.73;92.58
55010;BME280;40903;51.638;7.528;2023-03-29T09:46:46;100983.22;;;10.61;96.59
55010;BME280;40903;51.638;7.528;2023-03-29T09:49:17;100979.09;;;10.63;99.57
55010;BME280;40903;51.638;7.528;2023-03-29T09:51:45;100974.75;;;10.62;100.00
55010;BME280;40903;51.638;7.528;2023-03-29T09:54:12;100968.69;;;10.70;100.00
55010;BME280;40903;51.638;7.528;2023-03-29T09:56:38;100970.00;;;10.73;100.00
55010;BME280;40903;51.638;7.528;2023-03-29T09:59:04;100968.88;;;10.79;100.00
55010;BME280;40903;51.638;7.528;2023-03-29T10:01:34;100962.91;;;10.77;100.00
55010;BME280;40903;51.638;7.528;2023-03-29T10:04:01;100957.94;;;10.84;100.00
55010;BME280;40903;51.638;7.528;2023-03-29T10:06:26;100956.75;;;10.95;100.00
55010;BME280;40903;51.638;7.528;2023-03-29T10:08:52;100951.91;;;11.15;100.00
55010;BME280;40903;51.638;7.528;2023-03-29T10:13:46;100949.03;;;11.54;99.24
55010;BME280;40903;51.638;7.528;2023-03-29T10:16:23;100957.09;;;11.69;96.08
55010;BME280;40903;51.638;7.528;2023-03-29T10:18:50;100948.75;;;11.78;92.44
55010;BME280;40903;51.638;7.528;2023-03-29T10:21:19;100953.94;;;11.80;91.73
55010;BME280;40903;51.638;7.528;2023-03-29T10:23:45;100947.81;;;11.88;92.07
55010;BME280;40903;51.638;7.528;2023-03-29T10:26:16;100951.81;;;11.95;91.34
55010;BME280;40903;51.638;7.528;2023-03-29T10:28:42;100936.97;;;12.01;90.63
55010;BME280;40903;51.638;7.528;2023-03-29T10:31:08;100946.44;;;12.09;90.69
55010;BME280;40903;51.638;7.528;2023-03-29T10:33:41;100937.88;;;12.15;88.73
55010;BME280;40903;51.638;7.528;2023-03-29T10:36:07;100946.72;;;12.26;88.48
55010;BME280;40903;51.638;7.528;2023-03-29T10:38:33;100940.97;;;12.27;87.80
55010;BME280;40903;51.638;7.528;2023-03-29T10:41:08;100942.16;;;12.21;87.43
55010;BME280;40903;51.638;7.528;2023-03-29T10:43:39;100939.88;;;12.28;86.41
55010;BME280;40903;51.638;7.528;2023-03-29T10:46:10;100939.34;;;12.26;85.17
55010;BME280;40903;51.638;7.528;2023-03-29T10:48:44;100940.38;;;12.30;85.77
55010;BME280;40903;51.638;7.528;2023-03-29T10:51:10;100942.53;;;12.33;84.92
55010;BME280;40903;51.638;7.528;2023-03-29T10:53:37;100946.00;;;12.39;84.16
55010;BME280;40903;51.638;7.528;2023-03-29T11:01:33;100942.53;;;12.33;85.21
55010;BME280;40903;51.638;7.528;2023-03-29T11:09:15;100922.22;;;12.39;88.79
55010;BME280;40903;51.638;7.528;2023-03-29T11:11:47;100937.41;;;12.45;90.90
55010;BME280;40903;51.638;7.528;2023-03-29T11:29:44;100910.34;;;12.76;86.71
55010;BME280;40903;51.638;7.528;2023-03-29T11:40:38;100906.22;;;12.78;93.55
55010;BME280;40903;51.638;7.528;2023-03-29T11:43:24;100910.19;;;12.86;91.98
55010;BME280;40903;51.638;7.528;2023-03-29T11:46:00;100899.28;;;12.99;90.56
55010;BME280;40903;51.638;7.528;2023-03-29T11:48:37;100902.56;;;13.15;91.36
55010;BME280;40903;51.638;7.528;2023-03-29T11:51:13;100892.75;;;13.41;86.11
55010;BME280;40903;51.638;7.528;2023-03-29T11:53:45;100878.22;;;13.67;85.69
55010;BME280;40903;51.638;7.528;2023-03-29T11:56:16;100880.00;;;13.98;84.37
55010;BME280;40903;51.638;7.528;2023-03-29T11:58:43;100889.13;;;14.21;80.17
55010;BME280;40903;51.638;7.528;2023-03-29T12:01:20;100885.06;;;14.40;78.47
55010;BME280;40903;51.638;7.528;2023-03-29T12:07:49;100870.16;;;14.55;75.10
55010;BME280;40903;51.638;7.528;2023-03-29T12:14:57;100849.94;;;15.03;76.12
55010;BME280;40903;51.638;7.528;2023-03-29T12:17:26;100849.66;;;15.13;76.31
55010;BME280;40903;51.638;7.528;2023-03-29T12:19:59;100840.19;;;15.28;72.21
55010;BME280;40903;51.638;7.528;2023-03-29T12:22:28;100843.88;;;15.23;70.02
55010;BME280;40903;51.638;7.528;2023-03-29T12:24:53;100849.75;;;15.00;71.02
55010;BME280;40903;51.638;7.528;2023-03-29T12:27:33;100841.59;;;14.86;71.61
55010;BME280;40903;51.638;7.528;2023-03-29T12:30:21;100847.22;;;14.81;71.57
55010;BME280;40903;51.638;7.528;2023-03-29T12:33:08;100836.06;;;14.78;72.40
55010;BME280;40903;51.638;7.528;2023-03-29T12:35:40;100830.56;;;14.78;74.15
55010;BME280;40903;51.638;7.528;2023-03-29T12:38:30;100830.69;;;14.95;73.26
55010;BME280;40903;51.638;7.528;2023-03-29T12:40:56;100826.72;;;15.18;70.92
55010;BME280;40903;51.638;7.528;2023-03-29T12:43:25;100841.13;;;15.23;69.50
55010;BME280;40903;51.638;7.528;2023-03-29T12:45:52;100836.75;;;15.22;68.61
55010;BME280;40903;51.638;7.528;2023-03-29T12:48:22;100825.94;;;15.17;69.30
55010;BME280;40903;51.638;7.528;2023-03-29T12:50:57;100823.31;;;15.21;72.08
55010;BME280;40903;51.638;7.528;2023-03-29T12:53:33;100819.94;;;15.24;70.18
55010;BME280;40903;51.638;7.528;2023-03-29T13:01:50;100816.47;;;15.32;69.31
55010;BME280;40903;51.638;7.528;2023-03-29T13:03:51;100802.06;;;15.35;70.22
55010;BME280;40903;51.638;7.528;2023-03-29T13:06:30;100791.44;;;15.42;72.85
55010;BME280;40903;51.638;7.528;2023-03-29T13:08:57;100792.25;;;15.59;68.87
55010;BME280;40903;51.638;7.528;2023-03-29T13:11:24;100794.22;;;15.67;69.02
55010;BME280;40903;51.638;7.528;2023-03-29T13:13:50;100798.91;;;15.67;68.42
55010;BME280;40903;51.638;7.528;2023-03-29T13:16:17;100799.38;;;15.60;69.75
55010;BME280;40903;51.638;7.528;2023-03-29T13:19:45;100799.22;;;15.65;71.91
55010;BME280;40903;51.638;7.528;2023-03-29T13:27:10;100814.38;;;15.46;69.52
55010;BME280;40903;51.638;7.528;2023-03-29T13:32:29;100810.75;;;15.28;70.78
55010;BME280;40903;51.638;7.528;2023-03-29T13:35:20;100801.47;;;15.07;71.03
55010;BME280;40903;51.638;7.528;2023-03-29T13:37:58;100806.75;;;14.95;72.29
55010;BME280;40903;51.638;7.528;2023-03-29T13:40:32;100808.97;;;14.85;72.98
55010;BME280;40903;51.638;7.528;2023-03-29T13:45:34;100802.31;;;14.77;72.97
55010;BME280;40903;51.638;7.528;2023-03-29T13:53:30;100780.72;;;14.93;74.16
55010;BME280;40903;51.638;7.528;2023-03-29T13:55:57;100786.94;;;15.07;74.35
55010;BME280;40903;51.638;7.528;2023-03-29T14:03:46;100780.47;;;15.59;71.88
55010;BME280;40903;51.638;7.528;2023-03-29T14:06:13;100776.91;;;15.58;72.94
55010;BME280;40903;51.638;7.528;2023-03-29T14:08:40;100775.28;;;15.49;71.83
55010;BME280;40903;51.638;7.528;2023-03-29T14:11:06;100772.53;;;15.49;71.84
55010;BME280;40903;51.638;7.528;2023-03-29T14:13:32;100767.84;;;15.41;71.77
55010;BME280;40903;51.638;7.528;2023-03-29T14:18:24;100763.13;;;15.41;73.34
55010;BME280;40903;51.638;7.528;2023-03-29T14:20:51;100758.59;;;15.45;70.79
55010;BME280;40903;51.638;7.528;2023-03-29T14:23:23;100753.94;;;15.46;71.86
55010;BME280;40903;51.638;7.528;2023-03-29T14:25:49;100745.53;;;15.51;73.56
55010;BME280;40903;51.638;7.528;2023-03-29T14:28:18;100741.16;;;15.58;73.98
55010;BME280;40903;51.638;7.528;2023-03-29T14:30:45;100727.59;;;15.62;71.81
55010;BME280;40903;51.638;7.528;2023-03-29T14:33:12;100736.81;;;15.66;72.58
55010;BME280;40903;51.638;7.528;2023-03-29T14:35:37;100736.97;;;15.77;69.75
55010;BME280;40903;51.638;7.528;2023-03-29T14:38:04;100729.69;;;15.81;69.94
55010;BME280;40903;51.638;7.528;2023-03-29T14:40:29;100722.91;;;15.87;70.56
55010;BME280;40903;51.638;7.528;2023-03-29T14:42:55;100725.16;;;15.85;68.95
55010;BME280;40903;51.638;7.528;2023-03-29T14:45:20;100726.94;;;15.81;68.81
55010;BME280;40903;51.638;7.528;2023-03-29T14:47:47;100725.66;;;15.71;70.24